Time;durP1;ratioP1;P1;durP2;ratioP2;P2;SDS_P1;SDS_P2;PMS_P1;PMS_P2;Temp;Humidity;BMP_temperature;BMP_pressure;BME280_temperature;BME280_humidity;BME280_pressure;Samples;Min_cycle;Max_cycle;Signal;HPM_P1;HPM_P2
2022/12/09 01:21:06;;;;;;;125.05;23.22;;;;;;;2.52;100.00;101375.95;1806614;78;26259;-88
2022/12/09 01:23:32;;;;;;;85.22;21.15;;;;;;;3.27;100.00;101376.81;1770280;80;21324;-88
2022/12/09 01:25:58;;;;;;;86.20;20.45;;;;;;;3.22;100.00;101372.56;1774043;80;21532;-89
2022/12/09 01:28:24;;;;;;;92.42;20.70;;;;;;;3.50;100.00;101364.61;1769328;79;21578;-89
2022/12/09 01:30:50;;;;;;;86.37;19.52;;;;;;;3.51;100.00;101354.25;1761779;79;20984;-89
2022/12/09 01:33:15;;;;;;;81.42;19.62;;;;;;;3.57;100.00;101346.81;1760695;80;21014;-88
2022/12/09 01:35:42;;;;;;;82.00;16.87;;;;;;;3.55;100.00;101350.68;1762966;79;20896;-86
2022/12/09 01:38:07;;;;;;;87.05;19.30;;;;;;;3.59;100.00;101353.30;1745294;80;21289;-88
2022/12/09 01:40:33;;;;;;;83.58;18.92;;;;;;;3.71;100.00;101348.23;1751451;81;20935;-88
2022/12/09 01:42:59;;;;;;;73.62;16.77;;;;;;;3.71;100.00;101344.24;1766351;81;20920;-89
2022/12/09 01:45:34;;;;;;;64.40;15.83;;;;;;;3.76;100.00;101350.60;1761673;80;21665;-87
2022/12/09 01:48:12;;;;;;;77.92;17.57;;;;;;;3.88;100.00;101352.21;1751969;80;21074;-89
2022/12/09 01:50:44;;;;;;;62.55;16.07;;;;;;;3.97;100.00;101355.55;1714269;81;21222;-88
2022/12/09 01:53:13;;;;;;;59.38;14.70;;;;;;;4.04;100.00;101357.23;1638508;86;21563;-88
2022/12/09 01:55:40;;;;;;;59.93;15.05;;;;;;;4.06;100.00;101359.20;1632078;86;21051;-88
2022/12/09 01:58:06;;;;;;;63.60;15.78;;;;;;;4.04;100.00;101353.23;1625261;87;21304;-88
2022/12/09 02:00:32;;;;;;;68.70;15.53;;;;;;;4.24;100.00;101345.84;1630710;86;21659;-88
2022/12/09 02:03:01;;;;;;;72.47;14.28;;;;;;;4.14;100.00;101348.86;1633912;86;21078;-89
2022/12/09 02:05:29;;;;;;;55.40;13.45;;;;;;;4.02;100.00;101349.93;1634189;86;21421;-88
2022/12/09 02:07:55;;;;;;;67.97;14.30;;;;;;;4.03;100.00;101348.08;1630708;86;21034;-87
2022/12/09 02:10:22;;;;;;;50.78;12.82;;;;;;;4.03;100.00;101348.08;1640307;86;21832;-89
2022/12/09 02:13:05;;;;;;;51.13;12.85;;;;;;;4.00;100.00;101349.81;1619206;86;21130;-88
2022/12/09 02:15:56;;;;;;;;;;;;;;;3.99;100.00;101352.99;1629563;87;22031;-88
2022/12/09 02:18:48;;;;;;;56.77;12.60;;;;;;;4.00;100.00;101351.14;1627111;87;20500;-89
2022/12/09 02:21:37;;;;;;;57.48;13.68;;;;;;;4.12;100.00;101344.73;1619500;87;21110;-88
2022/12/09 02:24:18;;;;;;;56.42;12.93;;;;;;;4.08;100.00;101343.80;1573736;90;21082;-88
2022/12/09 02:26:49;;;;;;;48.05;12.03;;;;;;;4.15;100.00;101345.19;1583367;88;21535;-88
2022/12/09 02:29:57;;;;;;;60.15;13.20;;;;;;;4.16;100.00;101342.00;1626719;85;21894;-88
2022/12/09 02:33:04;;;;;;;55.10;12.43;;;;;;;4.19;100.00;101337.09;1634226;85;21015;-86
2022/12/09 02:35:53;;;;;;;54.83;13.20;;;;;;;4.28;100.00;101341.74;1632787;85;21619;-88
2022/12/09 02:38:25;;;;;;;55.08;12.85;;;;;;;4.24;100.00;101339.98;1619009;88;21519;-88
2022/12/09 02:40:59;;;;;;;46.68;13.45;;;;;;;4.16;100.00;101337.48;1619315;88;21662;-88
2022/12/09 02:43:32;;;;;;;42.35;12.40;;;;;;;4.21;100.00;101344.91;1571665;89;21117;-88
2022/12/09 02:46:00;;;;;;;57.25;14.93;;;;;;;4.34;100.00;101348.95;1571884;90;21117;-87
2022/12/09 02:48:31;;;;;;;60.20;16.07;;;;;;;4.35;100.00;101341.76;1572485;90;21057;-88
2022/12/09 02:50:57;;;;;;;63.85;16.48;;;;;;;4.35;100.00;101337.23;1593090;88;21114;-88
2022/12/09 02:53:25;;;;;;;44.27;12.10;;;;;;;4.26;100.00;101339.77;1582993;89;21472;-88
2022/12/09 02:55:54;;;;;;;43.58;10.95;;;;;;;4.29;100.00;101346.05;1651042;86;21178;-87
2022/12/09 02:58:20;;;;;;;47.88;12.75;;;;;;;4.32;100.00;101339.82;1630865;85;22245;-89
2022/12/09 03:00:46;;;;;;;46.98;11.53;;;;;;;4.35;100.00;101334.57;1647253;86;20868;-87
2022/12/09 03:03:15;;;;;;;45.58;11.55;;;;;;;4.36;100.00;101341.57;1654457;85;21505;-88
2022/12/09 03:06:02;;;;;;;40.00;11.40;;;;;;;4.37;100.00;101339.20;1585077;88;21071;-88
2022/12/09 03:08:52;;;;;;;41.53;10.78;;;;;;;4.46;100.00;101335.84;1523794;93;22053;-90
2022/12/09 03:11:20;;;;;;;47.48;10.88;;;;;;;4.52;100.00;101341.19;1524787;92;21174;-90
2022/12/09 03:14:07;;;;;;;48.98;11.80;;;;;;;4.61;100.00;101339.16;1523005;92;21075;-91
2022/12/09 03:19:56;;;;;;;45.70;10.65;;;;;;;4.62;100.00;101336.83;1525355;93;21106;-89
2022/12/09 03:22:27;;;;;;;;;;;;;;;4.49;100.00;101340.78;1527717;92;22045;-91
2022/12/09 03:25:05;;;;;;;48.65;11.88;;;;;;;4.47;100.00;101336.14;1521586;92;20483;-89
2022/12/09 03:27:50;;;;;;;38.98;10.85;;;;;;;4.44;100.00;101337.88;1522715;92;21706;-90
2022/12/09 03:30:17;;;;;;;42.25;11.43;;;;;;;4.47;100.00;101339.66;1521316;92;21166;-90
2022/12/09 03:32:45;;;;;;;36.23;10.90;;;;;;;4.52;100.00;101334.52;1523406;92;21050;-90
2022/12/09 03:35:21;;;;;;;54.95;14.23;;;;;;;4.53;100.00;101331.37;1506737;92;21225;-90
2022/12/09 03:37:50;;;;;;;40.38;10.80;;;;;;;4.45;100.00;101332.36;1474132;95;21149;-89
2022/12/09 03:40:21;;;;;;;44.65;12.28;;;;;;;4.50;100.00;101331.73;1540609;89;21070;-89
2022/12/09 03:43:01;;;;;;;39.88;11.05;;;;;;;4.48;100.00;101319.13;1577085;89;21527;-89
2022/12/09 03:45:28;;;;;;;39.20;11.22;;;;;;;4.44;100.00;101324.05;1535579;92;21548;-88
2022/12/09 03:47:55;;;;;;;39.40;11.33;;;;;;;4.46;100.00;101313.16;1526223;92;21414;-88
2022/12/09 03:50:25;;;;;;;39.73;10.45;;;;;;;4.47;100.00;101308.13;1527535;93;21567;-88
2022/12/09 03:53:15;;;;;;;50.85;12.78;;;;;;;4.47;100.00;101310.80;1510820;93;21096;-88
2022/12/09 03:55:52;;;;;;;42.03;11.65;;;;;;;4.42;100.00;101312.75;1511262;93;21224;-88
2022/12/09 03:58:18;;;;;;;47.83;12.07;;;;;;;4.38;100.00;101311.48;1510672;94;21176;-88
2022/12/09 04:00:46;;;;;;;47.88;12.55;;;;;;;4.39;100.00;101312.34;1554077;91;21185;-87
2022/12/09 04:03:15;;;;;;;47.00;11.45;;;;;;;4.45;100.00;101312.86;1584125;89;21101;-87
2022/12/09 04:05:41;;;;;;;42.45;11.83;;;;;;;4.47;100.00;101314.31;1596986;89;21061;-87
2022/12/09 04:08:08;;;;;;;33.20;10.85;;;;;;;4.54;100.00;101312.47;1589100;89;21068;-87
2022/12/09 04:10:34;;;;;;;44.27;11.35;;;;;;;4.58;100.00;101322.73;1595118;89;21085;-87
2022/12/09 04:13:00;;;;;;;52.78;14.07;;;;;;;4.59;100.00;101313.20;1586146;89;21901;-88
2022/12/09 04:15:26;;;;;;;41.40;11.93;;;;;;;4.52;100.00;101317.17;1597375;89;21077;-88
2022/12/09 04:17:52;;;;;;;46.68;11.83;;;;;;;4.45;100.00;101316.34;1586793;89;21002;-89
2022/12/09 04:20:18;;;;;;;36.20;12.28;;;;;;;4.43;100.00;101320.23;1580830;89;21502;-87
2022/12/09 04:22:44;;;;;;;42.08;12.03;;;;;;;4.42;100.00;101324.76;1642403;83;20917;-87
2022/12/09 04:25:10;;;;;;;49.40;12.47;;;;;;;4.39;100.00;101321.67;1695130;83;21112;-87
2022/12/09 04:31:18;;;;;;;40.05;11.38;;;;;;;4.41;100.00;101315.60;1695575;83;21031;-87
2022/12/09 04:33:45;;;;;;;49.45;12.65;;;;;;;4.38;100.00;101313.34;1720293;81;21178;-88
2022/12/09 04:36:16;;;;;;;42.80;12.47;;;;;;;4.29;100.00;101309.55;1753326;80;21001;-87
2022/12/09 04:38:43;;;;;;;53.75;13.22;;;;;;;4.38;100.00;101301.33;1754659;81;21389;-87
2022/12/09 04:41:12;;;;;;;44.83;12.85;;;;;;;4.31;100.00;101307.47;1750369;81;21524;-88
2022/12/09 04:43:38;;;;;;;51.33;12.75;;;;;;;4.29;100.00;101304.69;1754019;81;20965;-87
2022/12/09 04:46:09;;;;;;;54.88;14.40;;;;;;;4.28;100.00;101306.55;1754913;80;20912;-88
2022/12/09 04:48:35;;;;;;;53.15;13.50;;;;;;;4.30;100.00;101313.84;1747596;81;21060;-87
2022/12/09 04:51:01;;;;;;;47.38;13.48;;;;;;;4.33;100.00;101320.11;1755089;81;21226;-88
2022/12/09 04:53:27;;;;;;;56.58;13.70;;;;;;;4.37;100.00;101314.38;1754560;81;21078;-88
2022/12/09 04:56:02;;;;;;;60.23;14.73;;;;;;;4.45;100.00;101307.53;1752030;81;21104;-88
2022/12/09 04:58:28;;;;;;;65.15;13.85;;;;;;;4.42;100.00;101306.59;1755329;80;21003;-88
2022/12/09 05:00:55;;;;;;;60.05;13.62;;;;;;;4.38;100.00;101304.00;1756232;80;21624;-87
2022/12/09 05:03:21;;;;;;;62.85;14.35;;;;;;;4.36;100.00;101306.88;1751501;80;21138;-88
2022/12/09 05:05:47;;;;;;;55.55;13.68;;;;;;;4.38;100.00;101307.48;1757193;80;20977;-87
2022/12/09 05:08:13;;;;;;;62.93;13.95;;;;;;;4.40;100.00;101308.11;1753486;81;20960;-88
2022/12/09 05:10:39;;;;;;;52.65;14.53;;;;;;;4.53;100.00;101304.67;1751360;81;20947;-88
2022/12/09 05:13:05;;;;;;;72.92;17.05;;;;;;;4.48;100.00;101315.95;1758736;79;20899;-88
2022/12/09 05:19:12;;;;;;;70.40;18.85;;;;;;;4.47;100.00;101322.80;1780632;79;21102;-88
2022/12/09 05:21:38;;;;;;;76.62;19.40;;;;;;;4.48;100.00;101322.62;1781920;78;21082;-88
2022/12/09 05:24:05;;;;;;;74.12;18.42;;;;;;;4.49;100.00;101322.10;1753136;80;20876;-87
2022/12/09 05:26:31;;;;;;;93.85;19.95;;;;;;;4.53;100.00;101330.84;1765231;80;21505;-88
2022/12/09 05:28:57;;;;;;;89.75;18.23;;;;;;;4.52;100.00;101321.69;1754482;78;21091;-87
2022/12/09 05:35:04;;;;;;;84.83;17.40;;;;;;;4.43;100.00;101313.05;1769921;80;21066;-88
2022/12/09 05:37:30;;;;;;;73.92;16.57;;;;;;;4.40;100.00;101309.45;1757090;79;21093;-87
2022/12/09 05:39:56;;;;;;;85.45;18.75;;;;;;;4.43;100.00;101324.24;1760020;80;21462;-87
2022/12/09 05:42:22;;;;;;;76.82;16.35;;;;;;;4.45;100.00;101327.54;1745647;79;21937;-87
2022/12/09 05:44:48;;;;;;;77.80;15.90;;;;;;;4.47;100.00;101328.98;1767314;80;20959;-88
2022/12/09 05:47:14;;;;;;;63.10;15.88;;;;;;;4.49;100.00;101332.77;1731848;80;20950;-87
2022/12/09 05:49:41;;;;;;;67.80;15.48;;;;;;;4.48;100.00;101327.95;1755065;79;21062;-87
2022/12/09 05:52:08;;;;;;;71.87;15.93;;;;;;;4.52;100.00;101329.19;1768280;80;21102;-87
2022/12/09 05:54:34;;;;;;;76.87;16.52;;;;;;;4.57;100.00;101331.78;1753620;80;21169;-87
2022/12/09 05:57:02;;;;;;;76.10;16.87;;;;;;;4.56;100.00;101332.30;1764692;80;20881;-87
2022/12/09 05:59:29;;;;;;;65.80;14.55;;;;;;;4.57;100.00;101323.25;1757345;80;21026;-87
2022/12/09 06:01:55;;;;;;;61.60;15.95;;;;;;;4.55;100.00;101338.64;1757615;80;21472;-86
2022/12/09 06:04:21;;;;;;;69.50;15.98;;;;;;;4.54;100.00;101337.83;1751130;80;20917;-88
2022/12/09 06:06:47;;;;;;;66.87;14.87;;;;;;;4.51;100.00;101328.88;1738879;80;21520;-87
2022/12/09 06:09:13;;;;;;;69.32;15.48;;;;;;;4.58;100.00;101323.55;1758040;80;20901;-88
2022/12/09 06:11:40;;;;;;;69.25;15.40;;;;;;;4.59;100.00;101320.37;1748880;80;20901;-87
2022/12/09 06:14:09;;;;;;;76.02;17.57;;;;;;;4.59;100.00;101327.89;1752016;80;20987;-88
2022/12/09 06:16:35;;;;;;;80.32;17.15;;;;;;;4.59;100.00;101317.21;1671415;83;21490;-88
2022/12/09 06:19:01;;;;;;;63.02;15.50;;;;;;;4.59;100.00;101325.70;1637499;85;21110;-88
2022/12/09 06:21:27;;;;;;;65.30;17.05;;;;;;;4.60;100.00;101328.19;1664014;83;21114;-88
2022/12/09 06:23:57;;;;;;;63.80;15.25;;;;;;;4.65;100.00;101328.41;1651965;84;21012;-87
2022/12/09 06:26:27;;;;;;;60.43;14.55;;;;;;;4.64;100.00;101325.93;1554300;90;21256;-88
2022/12/09 06:28:54;;;;;;;61.63;13.90;;;;;;;4.69;100.00;101326.16;1555133;90;21932;-87
2022/12/09 06:31:22;;;;;;;53.70;14.53;;;;;;;4.73;100.00;101326.86;1555848;89;21197;-87
2022/12/09 06:33:48;;;;;;;61.68;14.40;;;;;;;4.79;100.00;101325.23;1566807;89;21102;-87
2022/12/09 06:36:14;;;;;;;52.83;13.68;;;;;;;4.80;100.00;101326.89;1557930;89;21105;-87
2022/12/09 06:38:41;;;;;;;66.45;14.15;;;;;;;4.76;100.00;101329.64;1559525;89;21096;-88
2022/12/09 06:41:10;;;;;;;56.30;14.38;;;;;;;4.76;100.00;101328.31;1551259;90;21087;-88
2022/12/09 06:43:37;;;;;;;59.40;15.05;;;;;;;4.76;100.00;101328.31;1553984;90;21173;-87
2022/12/09 06:46:15;;;;;;;65.78;15.35;;;;;;;4.72;100.00;101333.23;1563527;89;21059;-87
2022/12/09 06:48:41;;;;;;;63.70;15.48;;;;;;;4.72;100.00;101328.42;1554143;90;21066;-87
2022/12/09 06:51:08;;;;;;;61.65;15.00;;;;;;;4.68;100.00;101328.00;1557528;90;21511;-87
2022/12/09 06:53:34;;;;;;;59.05;13.32;;;;;;;4.64;100.00;101339.28;1555037;90;21236;-89
2022/12/09 06:56:05;;;;;;;62.88;14.07;;;;;;;4.68;100.00;101328.52;1555206;90;21225;-89
2022/12/09 06:58:32;;;;;;;64.85;14.50;;;;;;;4.69;100.00;101330.16;1557318;91;21087;-88
2022/12/09 07:01:12;;;;;;;66.40;16.05;;;;;;;4.73;100.00;101332.72;1554235;90;21606;-87
2022/12/09 07:03:37;;;;;;;77.75;17.20;;;;;;;4.72;100.00;101328.42;1516081;93;21110;-88
2022/12/09 07:09:43;;;;;;;71.30;17.67;;;;;;;4.74;100.00;101325.04;1515066;93;21631;-88
2022/12/09 07:12:09;;;;;;;79.32;19.62;;;;;;;4.72;100.00;101328.42;1506827;92;20962;-88
2022/12/09 11:14:51;;;;;;;179.68;32.23;;;;;;;3.92;100.00;101187.36;1823113;77;26154;-88
2022/12/09 11:17:26;;;;;;;184.37;31.95;;;;;;;4.49;100.00;101181.47;1793199;78;20999;-89
2022/12/09 11:20:11;;;;;;;197.10;36.60;;;;;;;4.65;100.00;101177.59;1658731;85;21184;-89
2022/12/09 11:22:43;;;;;;;163.15;30.60;;;;;;;4.79;100.00;101173.04;1617915;86;21098;-89
2022/12/09 11:25:18;;;;;;;170.38;30.62;;;;;;;4.88;100.00;101167.81;1621127;88;21070;-89
2022/12/09 11:27:55;;;;;;;193.00;40.12;;;;;;;4.93;100.00;101169.33;1612233;86;21042;-89
2022/12/09 11:30:34;;;;;;;137.10;26.93;;;;;;;5.09;100.00;101164.08;1627194;86;21059;-89
2022/12/09 11:33:32;;;;;;;142.20;26.95;;;;;;;5.18;100.00;101157.98;1608405;86;21913;-88
2022/12/09 11:36:33;;;;;;;133.57;25.23;;;;;;;5.26;100.00;101151.05;1624944;88;21055;-89
2022/12/09 11:39:29;;;;;;;132.07;26.20;;;;;;;5.20;100.00;101143.88;1612359;89;21046;-89
2022/12/09 11:42:19;;;;;;;113.08;23.27;;;;;;;5.16;100.00;101140.82;1598851;88;21091;-90
2022/12/09 11:44:55;;;;;;;113.62;24.02;;;;;;;5.20;100.00;101137.20;1595624;88;21075;-90
2022/12/09 11:47:32;;;;;;;113.20;22.10;;;;;;;5.20;100.00;101138.53;1581476;90;21153;-89
2022/12/09 11:50:19;;;;;;;108.07;25.00;;;;;;;5.23;100.00;101142.13;1584538;88;21640;-89
2022/12/09 11:53:06;;;;;;;111.05;23.80;;;;;;;5.22;100.00;101143.16;1588466;88;21125;-88
2022/12/09 11:55:38;;;;;;;117.37;24.40;;;;;;;5.20;100.00;101135.34;1588018;89;21093;-90
2022/12/09 11:58:08;;;;;;;113.05;24.55;;;;;;;5.24;100.00;101127.75;1556383;89;21721;-89
2022/12/09 12:00:42;;;;;;;103.97;23.42;;;;;;;5.23;100.00;101126.94;1573398;89;21137;-90
2022/12/09 12:03:31;;;;;;;142.25;25.97;;;;;;;5.26;100.00;101126.19;1576011;89;21095;-89
2022/12/09 12:06:00;;;;;;;106.63;22.32;;;;;;;5.25;100.00;101132.05;1595522;87;21090;-90
2022/12/09 12:08:43;;;;;;;98.95;22.27;;;;;;;5.34;100.00;101121.43;1598312;88;21056;-91
2022/12/09 12:11:11;;;;;;;;;;;;;;;5.34;100.00;101125.95;1601645;88;21064;-90
2022/12/09 12:13:44;;;;;;;98.82;21.42;;;;;;;5.32;100.00;101134.17;1599403;89;21126;-91
2022/12/09 12:16:27;;;;;;;112.92;23.40;;;;;;;5.30;100.00;101121.56;1609030;86;21158;-91
2022/12/09 12:19:13;;;;;;;111.47;23.67;;;;;;;5.26;100.00;101123.00;1586929;88;21569;-92
2022/12/09 12:22:16;;;;;;;108.30;22.87;;;;;;;5.22;100.00;101120.45;1555915;89;21649;-92
2022/12/09 12:25:21;;;;;;;102.10;21.60;;;;;;;5.23;100.00;101120.75;1586224;88;21035;-92
2022/12/09 12:28:25;;;;;;;97.70;22.77;;;;;;;5.21;100.00;101124.98;1591305;87;21605;-92
2022/12/09 12:31:25;;;;;;;95.87;22.02;;;;;;;5.22;100.00;101122.61;1561506;90;21304;-93
2022/12/09 12:34:19;;;;;;;105.85;23.27;;;;;;;5.22;100.00;101117.78;1562808;89;21116;-92
2022/12/09 12:37:20;;;;;;;94.97;22.62;;;;;;;5.22;100.00;101115.92;1565074;89;21067;-91
2022/12/09 12:40:11;;;;;;;108.45;25.17;;;;;;;5.26;100.00;101115.50;1598235;87;21690;-93
2022/12/09 12:46:46;;;;;;;102.45;22.82;;;;;;;5.25;100.00;101105.34;1605024;88;21676;-94
2022/12/09 12:49:59;;;;;;;114.25;23.90;;;;;;;5.28;100.00;101098.75;1598442;87;21097;-93
2022/12/09 12:52:42;;;;;;;113.85;25.43;;;;;;;5.31;100.00;101098.33;1604252;88;21093;-95
2022/12/09 12:55:35;;;;;;;105.52;23.62;;;;;;;5.30;100.00;101096.17;1606795;85;21022;-96
2022/12/09 12:58:27;;;;;;;105.05;24.23;;;;;;;5.31;100.00;101100.48;1683094;83;21221;-95
2022/12/09 13:01:17;;;;;;;111.45;23.38;;;;;;;5.32;100.00;101095.42;1693235;83;21022;-96
2022/12/09 13:03:51;;;;;;;110.80;25.82;;;;;;;5.34;100.00;101096.56;1708377;82;21551;-91
2022/12/09 13:06:21;;;;;;;116.30;24.87;;;;;;;5.38;100.00;101097.77;1692174;83;21071;-93
2022/12/09 13:08:54;;;;;;;113.57;24.32;;;;;;;5.37;100.00;101094.80;1736135;80;21029;-95
2022/12/09 13:11:26;;;;;;;115.95;23.85;;;;;;;5.35;100.00;101095.52;1758014;79;21189;-92
2022/12/09 13:14:00;;;;;;;105.27;22.93;;;;;;;5.42;100.00;101099.00;1754493;79;20998;-91
2022/12/09 13:16:39;;;;;;;101.27;22.85;;;;;;;5.41;100.00;101099.52;1696958;82;21030;-96
2022/12/09 13:19:19;;;;;;;97.37;23.35;;;;;;;5.45;100.00;101087.87;1699385;84;21108;-95
2022/12/09 13:21:47;;;;;;;110.32;24.18;;;;;;;5.46;100.00;101093.00;1712334;82;21649;-94
2022/12/09 13:24:48;;;;;;;106.10;22.77;;;;;;;5.48;100.00;101091.46;1713717;81;21507;-94
2022/12/09 13:27:20;;;;;;;92.60;21.85;;;;;;;5.49;100.00;101094.95;1719210;81;21165;-93
2022/12/09 13:29:57;;;;;;;108.00;22.80;;;;;;;5.47;100.00;101091.14;1712133;82;21101;-93
2022/12/09 13:32:56;;;;;;;83.60;21.02;;;;;;;5.46;100.00;101085.50;1708307;82;22681;-93
2022/12/09 13:35:45;;;;;;;94.77;22.13;;;;;;;5.48;100.00;101087.97;1718591;81;21078;-93
2022/12/09 13:38:41;;;;;;;90.05;20.70;;;;;;;5.48;100.00;101085.30;1669093;83;21525;-93
2022/12/09 13:42:51;;;;;;;92.25;22.20;;;;;;;5.48;100.00;101084.78;1661552;83;21114;-94
2022/12/09 13:44:09;;;;;;;91.72;21.68;;;;;;;5.48;100.00;101084.78;1654549;84;21023;-94
2022/12/09 13:46:35;;;;;;;89.80;22.48;;;;;;;5.44;100.00;101076.38;1654497;84;21133;-92
2022/12/09 13:49:12;;;;;;;92.33;21.93;;;;;;;5.46;100.00;101076.14;1660647;84;21570;-93
2022/12/09 13:51:48;;;;;;;86.60;21.52;;;;;;;5.46;100.00;101077.48;1532269;92;21349;-92
2022/12/09 13:54:17;;;;;;;91.65;21.30;;;;;;;5.45;100.00;101079.34;1521653;92;21060;-91
2022/12/09 13:56:47;;;;;;;81.75;20.43;;;;;;;5.47;100.00;101081.78;1546443;91;21116;-91
2022/12/09 13:59:42;;;;;;;78.85;21.42;;;;;;;5.49;100.00;101085.07;1536941;92;21150;-92
2022/12/09 14:02:23;;;;;;;75.95;19.70;;;;;;;5.47;100.00;101083.12;1540135;92;21100;-91
2022/12/09 14:05:00;;;;;;;75.30;18.75;;;;;;;5.45;100.00;101076.67;1537764;92;21994;-92
2022/12/09 14:07:41;;;;;;;78.67;20.50;;;;;;;5.42;100.00;101082.44;1547469;91;21721;-92
2022/12/09 14:10:36;;;;;;;82.33;20.02;;;;;;;5.35;100.00;101081.64;1526370;91;21438;-91
2022/12/09 14:13:28;;;;;;;74.32;17.73;;;;;;;5.40;100.00;101088.50;1513759;93;21275;-91
2022/12/09 14:16:29;;;;;;;74.32;19.50;;;;;;;5.39;100.00;101081.53;1503085;93;21181;-91
2022/12/09 14:18:57;;;;;;;72.30;19.73;;;;;;;5.37;100.00;101087.59;1434224;98;21148;-91
2022/12/09 14:21:29;;;;;;;66.95;18.67;;;;;;;5.38;100.00;101090.59;1458528;97;21136;-91
2022/12/09 14:24:15;;;;;;;62.45;19.07;;;;;;;5.40;100.00;101089.03;1458863;96;21152;-92
2022/12/09 14:26:52;;;;;;;75.47;19.82;;;;;;;5.42;100.00;101090.46;1461643;96;21160;-92
2022/12/09 14:30:00;;;;;;;75.32;19.87;;;;;;;5.41;100.00;101089.32;1492464;93;21103;-90
2022/12/09 14:32:49;;;;;;;67.70;20.10;;;;;;;5.37;100.00;101091.61;1484585;95;21663;-92
2022/12/09 14:35:39;;;;;;;83.30;21.68;;;;;;;5.34;100.00;101088.03;1473179;96;21232;-91
2022/12/09 14:38:53;;;;;;;70.47;19.98;;;;;;;5.37;100.00;101082.78;1460175;96;21195;-91
2022/12/09 14:41:28;;;;;;;71.55;19.35;;;;;;;5.35;100.00;101082.16;1425811;99;21196;-93
2022/12/09 14:44:02;;;;;;;71.17;19.52;;;;;;;5.34;100.00;101076.52;1426709;99;21285;-92
2022/12/09 14:46:34;;;;;;;69.32;18.57;;;;;;;5.33;100.00;101075.70;1418474;99;21289;-94
2022/12/09 14:49:24;;;;;;;70.32;19.10;;;;;;;5.30;100.00;101070.80;1453556;96;21160;-92
2022/12/09 14:51:57;;;;;;;68.62;18.73;;;;;;;5.27;100.00;101069.88;1465951;96;21109;-92
2022/12/09 14:54:35;;;;;;;68.95;18.23;;;;;;;5.27;100.00;101069.06;1476606;96;21845;-92
2022/12/09 14:57:09;;;;;;;65.12;17.48;;;;;;;5.24;100.00;101068.97;1420140;97;21761;-91
2022/12/09 14:59:35;;;;;;;73.02;19.48;;;;;;;5.29;100.00;101073.66;1430595;98;21183;-90
2022/12/09 15:02:09;;;;;;;64.82;18.60;;;;;;;5.26;100.00;101077.57;1424457;99;21112;-91
2022/12/09 15:04:45;;;;;;;63.15;17.48;;;;;;;5.24;100.00;101076.47;1425536;98;21220;-91
2022/12/09 15:07:27;;;;;;;62.40;17.85;;;;;;;5.23;100.00;101082.01;1430494;98;21180;-91
2022/12/09 15:10:03;;;;;;;56.77;16.12;;;;;;;5.21;100.00;101077.41;1459252;94;21716;-92
2022/12/09 15:12:37;;;;;;;58.98;17.42;;;;;;;5.17;100.00;101068.16;1515636;90;21938;-91
2022/12/09 15:15:24;;;;;;;55.52;15.65;;;;;;;5.10;100.00;101068.72;1598690;87;21215;-93
2022/12/09 15:17:58;;;;;;;63.83;17.67;;;;;;;5.03;100.00;101076.77;1595859;89;21236;-91
2022/12/09 15:20:35;;;;;;;66.12;18.12;;;;;;;5.03;100.00;101075.92;1590886;88;21536;-92
2022/12/09 15:23:25;;;;;;;64.32;17.52;;;;;;;5.09;100.00;101072.41;1571715;88;21074;-92
2022/12/09 15:26:00;;;;;;;61.77;19.27;;;;;;;5.11;100.00;101069.02;1566534;88;21199;-92
2022/12/09 15:28:31;;;;;;;77.67;19.87;;;;;;;5.12;100.00;101067.48;1564070;89;21085;-91
2022/12/09 15:31:05;;;;;;;68.52;17.45;;;;;;;5.16;100.00;101054.52;1509550;92;21677;-89
2022/12/09 15:33:41;;;;;;;71.37;19.95;;;;;;;5.14;100.00;101060.05;1510025;92;21112;-92
2022/12/09 15:36:21;;;;;;;68.70;18.90;;;;;;;5.13;100.00;101050.41;1503582;92;21183;-90
2022/12/09 15:38:55;;;;;;;81.02;22.17;;;;;;;5.14;100.00;101040.54;1502750;92;22443;-90
2022/12/09 15:44:18;;;;;;;65.72;18.55;;;;;;;5.12;100.00;101032.75;1535934;92;21197;-89
2022/12/09 15:46:46;;;;;;;70.65;19.00;;;;;;;5.14;100.00;101036.02;1545265;91;21053;-88
2022/12/09 15:49:20;;;;;;;66.82;17.73;;;;;;;5.15;100.00;101034.19;1555737;91;21180;-88
2022/12/09 15:51:46;;;;;;;75.12;17.87;;;;;;;5.13;100.00;101036.23;1556730;91;21616;-89
2022/12/09 15:54:18;;;;;;;69.00;18.15;;;;;;;5.11;100.00;101042.30;1570922;89;21151;-90
2022/12/09 15:56:57;;;;;;;68.78;17.95;;;;;;;5.13;100.00;101045.59;1582374;89;21582;-90
2022/12/09 15:59:39;;;;;;;76.25;19.00;;;;;;;5.01;100.00;101040.91;1582200;89;21725;-90
2022/12/09 16:02:10;;;;;;;78.67;20.40;;;;;;;5.01;100.00;101041.42;1537694;91;21698;-91
2022/12/09 16:04:44;;;;;;;65.35;18.92;;;;;;;4.99;100.00;101045.62;1514246;92;21751;-91
2022/12/09 16:07:14;;;;;;;75.40;19.92;;;;;;;4.96;100.00;101054.06;1493100;95;21128;-91
2022/12/09 16:09:40;;;;;;;74.03;18.12;;;;;;;4.95;100.00;101049.77;1483225;95;21099;-91
2022/12/09 16:12:28;;;;;;;67.87;17.70;;;;;;;4.95;100.00;101045.76;1501085;95;21152;-90
2022/12/09 16:14:54;;;;;;;64.77;17.45;;;;;;;4.89;100.00;101046.61;1529309;92;21592;-91
2022/12/09 16:17:26;;;;;;;69.90;18.75;;;;;;;4.90;100.00;101041.56;1541439;91;21667;-91
2022/12/09 16:19:53;;;;;;;78.92;19.02;;;;;;;4.92;100.00;101034.17;1517642;92;21301;-90
2022/12/09 16:22:31;;;;;;;62.55;18.52;;;;;;;4.89;100.00;101031.92;1544452;91;21179;-91
2022/12/09 16:25:02;;;;;;;72.72;19.12;;;;;;;4.88;100.00;101038.30;1496382;94;21584;-90
2022/12/09 16:27:33;;;;;;;74.50;18.80;;;;;;;4.85;100.00;101040.03;1478060;95;21190;-93
2022/12/09 16:30:19;;;;;;;76.50;18.92;;;;;;;4.81;100.00;101031.34;1480150;95;21238;-91
2022/12/09 16:33:03;;;;;;;72.22;20.50;;;;;;;4.80;100.00;101030.52;1491960;94;21161;-91
2022/12/09 16:35:41;;;;;;;72.97;19.23;;;;;;;4.81;100.00;101030.00;1502720;94;21103;-90
2022/12/09 16:38:15;;;;;;;71.20;18.62;;;;;;;4.83;100.00;101027.95;1493680;94;21105;-90
2022/12/09 16:40:52;;;;;;;79.10;22.22;;;;;;;4.81;100.00;101030.81;1487431;95;21191;-91
2022/12/09 20:28:35;;;;;;;122.55;29.27;;;;;;;6.32;100.00;101009.16;1806768;78;26303;-91
2022/12/09 20:31:05;;;;;;;127.20;28.85;;;;;;;6.83;100.00;101016.04;1769706;80;21479;-91
2022/12/09 20:33:32;;;;;;;171.55;42.60;;;;;;;6.66;100.00;101021.70;1667837;84;21148;-90
2022/12/09 20:36:09;;;;;;;215.87;57.15;;;;;;;6.76;100.00;101013.94;1679305;84;21033;-92
2022/12/09 20:42:15;;;;;;;117.50;30.65;;;;;;;6.57;100.00;100996.55;1630358;85;21015;-91
2022/12/09 20:44:41;;;;;;;345.73;120.50;;;;;;;6.62;100.00;100995.05;1626651;87;21098;-92
2022/12/09 20:47:07;;;;;;;244.70;76.35;;;;;;;6.72;100.00;100994.02;1608530;87;21262;-93
2022/12/09 20:49:33;;;;;;;143.57;43.80;;;;;;;6.74;100.00;100990.61;1615377;87;21204;-91
2022/12/09 20:51:59;;;;;;;97.02;25.17;;;;;;;6.86;100.00;100987.46;1621731;87;21232;-92
2022/12/09 20:54:26;;;;;;;97.22;23.52;;;;;;;6.90;100.00;100983.27;1605439;87;20995;-91
2022/12/09 20:56:52;;;;;;;83.10;21.62;;;;;;;6.89;100.00;100984.86;1619046;87;21682;-91
2022/12/09 20:59:18;;;;;;;87.12;22.22;;;;;;;7.12;100.00;100981.44;1629827;87;21214;-91
2022/12/09 21:01:45;;;;;;;93.45;22.22;;;;;;;7.01;100.00;100982.52;1630070;87;21195;-91
2022/12/09 21:04:13;;;;;;;82.95;22.00;;;;;;;7.03;100.00;100975.08;1632325;87;21058;-91
2022/12/09 21:06:40;;;;;;;107.58;28.50;;;;;;;7.07;100.00;100977.30;1626241;87;21693;-91
2022/12/09 21:09:11;;;;;;;113.85;28.12;;;;;;;7.28;100.00;100978.12;1611609;87;21062;-91
2022/12/09 21:11:38;;;;;;;80.72;20.72;;;;;;;7.21;100.00;100978.23;1659135;84;21585;-92
2022/12/09 21:14:06;;;;;;;72.85;19.20;;;;;;;7.29;100.00;100970.38;1654346;85;21035;-91
2022/12/09 21:16:40;;;;;;;98.92;22.93;;;;;;;7.30;100.00;100965.33;1667168;84;21095;-91